Greyabbey, United Kingdom
Current Conditions -  °F | °C
As of 9:20 PM on Monday 26 Jan 2015 (Local Time) from EGAC Reporting Station
Rain Showers Rain Showers  
Wind Chill: 37°   Ceiling: Unl
Heat Index: 43°   Visibility: 6mi
Dew Point: 39°   Wind: 9mph
Humidity: 87%   Direction: 250°WSW
Pressure: 30.33"   Gusts: NA
Location:  54.53°N, 5.57°W
Report Text: EGAC 262120Z 25008KT 9999 VCSH FEW023 SCT028 06/04 Q1027
Loading
Personal Weather Stations






























Interactive Weather Map New forecast layout! Learn more

10-Day Weather Forecast

Advertisements
Track Severe Weather on mobile